createdAt,value
2022-11-19T00:01:49.222Z,6.14
2022-11-19T00:04:15.524Z,6.37
2022-11-19T00:06:41.788Z,6.57
2022-11-19T00:09:10.948Z,6.38
2022-11-19T00:11:56.044Z,6.18
2022-11-19T00:14:23.383Z,6.21
2022-11-19T00:16:49.668Z,6.20
2022-11-19T00:19:15.963Z,6.60
2022-11-19T00:21:42.252Z,6.32
2022-11-19T00:24:08.832Z,6.16
2022-11-19T00:26:35.125Z,6.61
2022-11-19T00:29:01.445Z,6.57
2022-11-19T00:31:27.708Z,6.76
2022-11-19T00:33:54.545Z,6.80
2022-11-19T00:36:20.873Z,6.92
2022-11-19T00:38:47.145Z,7.01
2022-11-19T00:41:13.431Z,7.16
2022-11-19T00:43:49.394Z,7.25
2022-11-19T00:46:15.809Z,7.15
2022-11-19T00:48:42.079Z,7.17
2022-11-19T00:51:08.411Z,7.41
2022-11-19T00:53:34.745Z,7.46
2022-11-19T00:56:01.929Z,7.52
2022-11-19T00:58:28.377Z,7.58
2022-11-19T01:00:54.687Z,7.48
2022-11-19T01:03:21.294Z,7.38
2022-11-19T01:05:47.572Z,7.18
2022-11-19T01:08:13.856Z,7.18
2022-11-19T01:10:40.210Z,7.20
2022-11-19T01:13:25.088Z,7.15
2022-11-19T01:15:51.376Z,7.27
2022-11-19T01:18:17.806Z,7.14
2022-11-19T01:20:44.382Z,6.93
2022-11-19T01:23:10.683Z,7.38
2022-11-19T01:25:37.023Z,7.49
2022-11-19T01:28:03.869Z,7.31
2022-11-19T01:30:30.350Z,7.45
2022-11-19T01:32:56.638Z,7.74
2022-11-19T01:35:22.940Z,7.67
2022-11-19T01:37:49.233Z,7.73
2022-11-19T01:40:15.530Z,7.46
2022-11-19T01:42:50.858Z,7.34
2022-11-19T01:45:18.975Z,7.12
2022-11-19T01:47:45.323Z,6.93
2022-11-19T01:50:11.603Z,7.33
2022-11-19T01:52:39.755Z,7.38
2022-11-19T01:55:06.289Z,7.27
2022-11-19T01:57:32.581Z,7.50
2022-11-19T01:59:58.882Z,7.55
2022-11-19T02:02:25.240Z,7.26
2022-11-19T02:04:57.045Z,7.49
2022-11-19T02:07:28.991Z,7.63
2022-11-19T02:09:55.656Z,7.28
2022-11-19T02:12:31.159Z,7.56
2022-11-19T02:15:19.095Z,7.58
2022-11-19T02:17:58.804Z,7.70
2022-11-19T02:20:25.021Z,7.46
2022-11-19T02:23:10.249Z,7.60
2022-11-19T02:25:39.564Z,7.60
2022-11-19T02:28:26.302Z,7.59
2022-11-19T02:30:53.116Z,7.63
2022-11-19T02:33:26.267Z,7.34
2022-11-19T02:35:57.003Z,7.34
2022-11-19T02:38:32.006Z,7.68
2022-11-19T02:40:59.220Z,7.77
2022-11-19T02:43:27.345Z,7.67
2022-11-19T02:45:58.042Z,7.63
2022-11-19T02:48:25.597Z,7.56
2022-11-19T02:50:52.717Z,7.79
2022-11-19T02:53:18.993Z,7.90
2022-11-19T02:56:04.094Z,7.78
2022-11-19T02:58:49.279Z,7.75
2022-11-19T03:01:34.232Z,8.04
2022-11-19T03:04:19.069Z,7.79
2022-11-19T03:06:45.354Z,7.78
2022-11-19T03:09:11.663Z,7.84
2022-11-19T03:11:37.939Z,7.77
2022-11-19T03:14:36.597Z,7.77
2022-11-19T03:17:07.080Z,7.72
2022-11-19T03:19:43.364Z,7.79
2022-11-19T03:22:17.922Z,7.93
2022-11-19T03:24:50.836Z,7.85
2022-11-19T03:27:22.879Z,7.71
2022-11-19T03:29:49.497Z,7.10
2022-11-19T03:32:19.682Z,6.79
2022-11-19T03:34:46.143Z,7.32
2022-11-19T03:37:12.904Z,7.45
2022-11-19T03:39:39.203Z,7.58
2022-11-19T03:42:05.974Z,7.42
2022-11-19T03:44:38.331Z,7.52
2022-11-19T03:47:15.387Z,7.76
2022-11-19T03:49:43.767Z,7.52
2022-11-19T03:52:19.679Z,7.87
2022-11-19T03:54:45.951Z,7.83
2022-11-19T03:57:14.738Z,7.75
2022-11-19T03:59:41.065Z,7.52
2022-11-19T04:02:07.951Z,7.78
2022-11-19T04:04:37.276Z,7.54
2022-11-19T04:07:06.408Z,6.70
2022-11-19T04:09:32.703Z,7.03
2022-11-19T04:11:59.029Z,7.31
2022-11-19T04:14:25.350Z,7.27
2022-11-19T04:16:51.639Z,7.32
2022-11-19T04:19:18.419Z,7.22
2022-11-19T04:21:44.925Z,7.21
2022-11-19T04:24:11.223Z,7.42
2022-11-19T04:26:37.494Z,7.58
2022-11-19T04:29:03.816Z,7.28
2022-11-19T04:31:30.087Z,7.37
2022-11-19T04:33:56.359Z,7.34
2022-11-19T04:36:22.668Z,7.34
2022-11-19T04:38:48.967Z,7.27
2022-11-19T04:41:15.266Z,7.42
2022-11-19T04:43:41.538Z,7.46
2022-11-19T04:46:07.807Z,7.32
2022-11-19T04:48:34.112Z,7.35
2022-11-19T04:51:00.407Z,7.35
2022-11-19T04:53:26.726Z,7.49
2022-11-19T04:55:52.994Z,7.49
2022-11-19T04:58:19.275Z,7.08
2022-11-19T05:00:45.541Z,7.29
2022-11-19T05:03:11.832Z,7.34
2022-11-19T05:05:38.112Z,7.22
2022-11-19T05:08:04.519Z,7.22
2022-11-19T05:10:30.795Z,7.05
2022-11-19T05:12:57.102Z,7.16
2022-11-19T05:15:23.410Z,7.20
2022-11-19T05:17:49.688Z,7.53
2022-11-19T05:20:16.036Z,7.50
2022-11-19T05:22:42.310Z,7.31
2022-11-19T05:25:08.666Z,7.34
2022-11-19T05:27:35.295Z,7.49
2022-11-19T05:30:01.567Z,7.49
2022-11-19T05:32:27.853Z,7.31
2022-11-19T05:34:54.129Z,7.29
2022-11-19T05:37:20.390Z,7.51
2022-11-19T05:39:46.681Z,7.50
2022-11-19T05:42:12.955Z,7.17
2022-11-19T05:44:39.232Z,6.82
2022-11-19T05:47:05.513Z,6.59
2022-11-19T05:49:31.777Z,7.47
2022-11-19T05:51:58.103Z,7.27
2022-11-19T05:54:24.441Z,7.17
2022-11-19T05:56:50.777Z,7.59
2022-11-19T05:59:17.433Z,7.40
2022-11-19T06:01:44.309Z,7.35
2022-11-19T06:04:11.124Z,7.02
2022-11-19T06:06:37.475Z,7.09
2022-11-19T06:09:03.910Z,7.41
2022-11-19T06:11:48.125Z,7.52
2022-11-19T06:14:14.654Z,7.30
2022-11-19T06:16:40.938Z,7.11
2022-11-19T06:19:07.228Z,7.54
2022-11-19T06:21:33.502Z,7.68
2022-11-19T06:23:59.793Z,7.26
2022-11-19T06:26:26.755Z,7.18
2022-11-19T06:28:53.049Z,7.12
2022-11-19T06:31:19.337Z,7.56
2022-11-19T06:33:45.622Z,7.35
2022-11-19T06:36:11.954Z,7.47
2022-11-19T06:38:38.233Z,7.24
2022-11-19T06:41:04.672Z,7.51
2022-11-19T06:43:30.942Z,7.59
2022-11-19T06:45:57.293Z,7.58
2022-11-19T06:48:23.580Z,7.74
2022-11-19T06:50:49.860Z,7.78
2022-11-19T06:53:16.124Z,7.67
2022-11-19T06:55:42.386Z,7.78
2022-11-19T06:58:08.787Z,7.49
2022-11-19T07:00:35.064Z,7.41
2022-11-19T07:03:01.353Z,7.32
2022-11-19T07:05:27.641Z,7.43
2022-11-19T07:07:54.650Z,7.29
2022-11-19T07:10:23.018Z,7.56
2022-11-19T07:12:49.301Z,7.45
2022-11-19T07:15:15.592Z,7.59
2022-11-19T07:17:42.561Z,7.48
2022-11-19T07:20:09.139Z,7.68
2022-11-19T07:22:35.409Z,7.77
2022-11-19T07:25:01.687Z,7.72
2022-11-19T07:27:27.974Z,7.76
2022-11-19T07:29:54.262Z,7.80
2022-11-19T07:32:20.516Z,7.62
2022-11-19T07:34:46.798Z,7.68
2022-11-19T07:37:13.058Z,7.58
2022-11-19T07:39:39.335Z,7.78
2022-11-19T07:42:24.200Z,7.91
2022-11-19T07:44:54.659Z,8.06
2022-11-19T07:47:21.867Z,8.05
2022-11-19T07:49:48.140Z,8.06
2022-11-19T07:52:14.424Z,8.24
2022-11-19T07:54:40.713Z,8.29
2022-11-19T07:57:07.029Z,8.49
2022-11-19T07:59:33.359Z,8.55
2022-11-19T08:01:59.645Z,8.25
2022-11-19T08:04:27.357Z,8.01
2022-11-19T08:06:53.795Z,8.14
2022-11-19T08:09:20.259Z,8.28
2022-11-19T08:11:46.807Z,8.46
2022-11-19T08:14:13.486Z,8.64
2022-11-19T08:16:58.176Z,8.70
2022-11-19T08:19:24.474Z,8.74
2022-11-19T08:21:50.758Z,8.66
2022-11-19T08:24:18.206Z,8.63
2022-11-19T08:26:44.778Z,8.71
2022-11-19T08:29:15.912Z,8.79
2022-11-19T08:31:42.715Z,8.97
2022-11-19T08:34:08.989Z,8.94
2022-11-19T08:36:35.274Z,8.90
2022-11-19T08:39:02.340Z,8.94
2022-11-19T08:41:47.538Z,8.85
2022-11-19T08:44:13.795Z,8.58
2022-11-19T08:46:40.080Z,8.28
2022-11-19T08:49:06.355Z,8.32
2022-11-19T08:51:32.655Z,8.04
2022-11-19T08:53:58.949Z,8.04
2022-11-19T08:56:25.264Z,8.18
2022-11-19T08:58:52.026Z,7.99
2022-11-19T09:01:18.573Z,8.09
2022-11-19T09:03:44.907Z,8.07
2022-11-19T09:06:11.233Z,8.40
2022-11-19T09:08:37.521Z,8.53
2022-11-19T09:11:07.451Z,8.58
2022-11-19T09:13:33.862Z,7.98
2022-11-19T09:16:00.198Z,7.76
2022-11-19T09:18:26.462Z,7.26
2022-11-19T09:20:53.335Z,7.26
2022-11-19T09:23:19.618Z,7.28
2022-11-19T09:25:45.892Z,7.06
2022-11-19T09:28:12.166Z,7.27
2022-11-19T09:30:38.440Z,7.23
2022-11-19T09:33:04.719Z,7.46
2022-11-19T09:35:30.985Z,7.42
2022-11-19T09:37:57.240Z,7.76
2022-11-19T09:40:23.679Z,7.56
2022-11-19T09:43:28.313Z,8.03
2022-11-19T09:45:54.910Z,7.87
2022-11-19T09:48:25.800Z,8.05
2022-11-19T09:50:54.230Z,8.37
2022-11-19T09:53:21.349Z,8.10
2022-11-19T09:55:47.871Z,7.91
2022-11-19T09:58:23.074Z,7.80
2022-11-19T10:00:49.354Z,7.68
2022-11-19T10:03:16.047Z,7.71
2022-11-19T10:05:45.859Z,7.83
2022-11-19T10:08:18.295Z,7.69
2022-11-19T10:10:51.758Z,7.41
2022-11-19T10:13:44.428Z,7.02
2022-11-19T10:16:10.631Z,6.97
2022-11-19T10:18:42.792Z,6.93
2022-11-19T10:21:09.042Z,6.90
2022-11-19T10:23:39.873Z,6.98
2022-11-19T10:26:07.081Z,6.86
2022-11-19T10:28:35.732Z,6.72
2022-11-19T10:31:37.633Z,6.90
2022-11-19T10:34:27.131Z,7.03
2022-11-19T10:36:55.677Z,7.21
2022-11-19T10:39:41.854Z,7.50
2022-11-19T10:42:09.035Z,7.53
2022-11-19T10:44:43.536Z,7.50
2022-11-19T10:47:15.080Z,7.52
2022-11-19T10:49:41.773Z,7.77
2022-11-19T10:52:15.005Z,7.67
2022-11-19T10:54:41.284Z,7.73
2022-11-19T10:57:07.569Z,7.50
2022-11-19T10:59:33.880Z,7.54
2022-11-19T11:02:01.484Z,7.58
2022-11-19T11:04:28.681Z,7.73
2022-11-19T11:06:55.783Z,7.83
2022-11-19T11:09:31.308Z,8.06
2022-11-19T11:12:16.708Z,7.76
2022-11-19T11:14:52.001Z,8.06
2022-11-19T11:17:18.998Z,8.11
2022-11-19T11:19:45.258Z,8.18
2022-11-19T11:22:11.598Z,8.19
2022-11-19T11:24:38.397Z,7.95
2022-11-19T11:27:21.137Z,7.80
2022-11-19T11:29:47.437Z,8.11
2022-11-19T11:32:26.708Z,8.13
2022-11-19T11:34:53.006Z,8.15
2022-11-19T11:37:19.291Z,8.26
2022-11-19T11:39:47.676Z,8.26
2022-11-19T11:42:17.988Z,8.36
2022-11-19T11:44:49.286Z,8.51
2022-11-19T11:47:19.460Z,8.71
2022-11-19T11:49:46.453Z,8.38
2022-11-19T11:52:33.629Z,8.13
2022-11-19T11:55:01.053Z,8.25
2022-11-19T11:57:31.022Z,8.48
2022-11-19T11:59:57.367Z,8.54
2022-11-19T12:02:30.411Z,8.77
2022-11-19T12:04:58.800Z,8.84
2022-11-19T12:07:30.539Z,8.55
2022-11-19T12:10:03.331Z,8.63
2022-11-19T12:12:48.357Z,8.77
2022-11-19T12:15:21.209Z,8.82
2022-11-19T12:17:53.454Z,8.67
2022-11-19T12:20:31.866Z,8.49
2022-11-19T12:23:02.135Z,8.28
2022-11-19T12:25:54.830Z,8.40
2022-11-19T12:28:27.583Z,8.09
2022-11-19T12:30:56.964Z,8.45
2022-11-19T12:33:45.582Z,8.70
2022-11-19T12:36:31.914Z,7.26
2022-11-19T12:39:10.485Z,7.04
2022-11-19T12:41:43.019Z,7.57
2022-11-19T12:44:29.537Z,7.05
2022-11-19T12:47:04.920Z,7.85
2022-11-19T12:49:41.108Z,7.43
2022-11-19T12:52:27.681Z,7.72
2022-11-19T12:55:09.571Z,8.31
2022-11-19T12:57:56.744Z,8.72
2022-11-19T13:00:23.563Z,8.89
2022-11-19T13:03:04.203Z,8.83
2022-11-19T13:05:42.512Z,9.20
2022-11-19T13:08:08.758Z,9.21
2022-11-19T13:11:07.219Z,9.47
2022-11-19T13:13:33.496Z,9.42
2022-11-19T13:16:03.783Z,9.30
2022-11-19T13:18:30.898Z,8.89
2022-11-19T13:20:59.500Z,9.18
2022-11-19T13:23:30.751Z,9.29
2022-11-19T13:25:58.586Z,9.31
2022-11-19T13:28:26.903Z,9.06
2022-11-19T13:30:53.283Z,9.10
2022-11-19T13:33:19.565Z,9.10
2022-11-19T13:36:04.680Z,9.00
2022-11-19T13:38:36.570Z,8.72
2022-11-19T13:41:05.893Z,8.65
2022-11-19T13:43:50.949Z,8.44
2022-11-19T13:46:19.228Z,8.32
2022-11-19T13:48:51.143Z,8.52
2022-11-19T13:51:26.139Z,8.71
2022-11-19T13:53:52.399Z,8.55
2022-11-19T13:56:18.745Z,8.59
2022-11-19T13:58:51.741Z,8.47
2022-11-19T14:01:33.898Z,8.47
2022-11-19T14:04:00.220Z,8.75
2022-11-19T14:06:26.553Z,8.86
2022-11-19T14:09:01.917Z,8.79
2022-11-19T14:11:33.521Z,8.85
2022-11-19T14:14:02.845Z,8.52
2022-11-19T14:17:17.317Z,8.66
2022-11-19T14:20:08.826Z,8.67
2022-11-19T14:22:58.103Z,8.65
2022-11-19T14:26:09.480Z,8.41
2022-11-19T14:28:41.821Z,8.50
2022-11-19T14:31:08.156Z,8.38
2022-11-19T14:33:42.118Z,8.32
2022-11-19T14:36:11.642Z,8.26
2022-11-19T14:38:37.962Z,8.15
2022-11-19T14:41:06.006Z,8.08
2022-11-19T14:43:50.765Z,7.65
2022-11-19T14:46:17.008Z,7.49
2022-11-19T14:48:43.291Z,7.36
2022-11-19T14:51:16.570Z,7.02
2022-11-19T14:53:49.628Z,7.03
2022-11-19T14:56:15.988Z,7.13
2022-11-19T14:59:01.114Z,7.22
2022-11-19T15:01:27.389Z,7.49
2022-11-19T15:03:54.899Z,7.47
2022-11-19T15:06:21.318Z,7.43
2022-11-19T15:08:58.956Z,7.56
2022-11-19T15:11:25.244Z,7.55
2022-11-19T15:14:11.729Z,7.76
2022-11-19T15:16:38.039Z,7.87
2022-11-19T15:19:11.709Z,7.99
2022-11-19T15:21:37.922Z,7.65
2022-11-19T15:24:16.360Z,7.43
2022-11-19T15:26:51.749Z,7.64
2022-11-19T15:29:21.646Z,7.70
2022-11-19T15:31:48.106Z,7.71
2022-11-19T15:34:17.509Z,7.79
2022-11-19T15:37:03.383Z,7.40
2022-11-19T15:39:35.930Z,6.97
2022-11-19T15:42:02.558Z,6.67
2022-11-19T15:44:35.365Z,6.67
2022-11-19T15:47:01.816Z,6.67
2022-11-19T15:49:28.491Z,7.05
2022-11-19T15:52:16.089Z,7.36
2022-11-19T15:54:44.081Z,7.45
2022-11-19T15:57:16.508Z,7.39
2022-11-19T15:59:43.501Z,7.28
2022-11-19T16:02:24.265Z,7.16
2022-11-19T16:04:51.099Z,6.94
2022-11-19T16:07:21.333Z,6.92
2022-11-19T16:09:48.668Z,6.77
2022-11-19T16:12:40.199Z,6.72
2022-11-19T16:15:39.363Z,6.62
2022-11-19T16:18:11.728Z,6.57
2022-11-19T16:20:38.006Z,6.59
2022-11-19T16:23:04.772Z,6.86
2022-11-19T16:25:32.407Z,6.86
2022-11-19T16:27:59.498Z,6.84
2022-11-19T16:30:26.468Z,6.76
2022-11-19T16:32:55.706Z,6.77
2022-11-19T16:35:28.941Z,6.73
2022-11-19T16:37:55.259Z,6.66
2022-11-19T16:40:21.520Z,6.96
2022-11-19T16:42:50.187Z,6.85
2022-11-19T16:45:20.633Z,6.74
2022-11-19T16:47:53.768Z,6.66
2022-11-19T16:50:27.424Z,6.60
2022-11-19T16:52:53.921Z,6.45
2022-11-19T16:55:23.171Z,6.65
2022-11-19T16:57:49.837Z,6.64
2022-11-19T17:00:20.123Z,6.66
2022-11-19T17:02:46.534Z,6.59
2022-11-19T17:05:16.895Z,6.62
2022-11-19T17:07:43.698Z,6.88
2022-11-19T17:10:13.063Z,7.07
2022-11-19T17:12:49.758Z,6.88
2022-11-19T17:15:32.935Z,6.70
2022-11-19T17:18:25.276Z,6.83
2022-11-19T17:20:52.500Z,6.82
2022-11-19T17:23:19.763Z,6.75
2022-11-19T17:25:55.308Z,6.73
2022-11-19T17:28:25.509Z,6.74
2022-11-19T17:30:51.775Z,6.76
2022-11-19T17:33:18.451Z,6.92
2022-11-19T17:35:47.710Z,6.79
2022-11-19T17:38:13.955Z,6.90
2022-11-19T17:40:42.376Z,6.88
2022-11-19T17:43:28.077Z,7.00
2022-11-19T17:45:54.406Z,6.89
2022-11-19T17:48:21.729Z,6.99
2022-11-19T17:50:48.020Z,7.13
2022-11-19T17:53:14.280Z,7.14
2022-11-19T17:55:40.718Z,7.32
2022-11-19T17:58:07.108Z,7.34
2022-11-19T18:00:33.373Z,7.42
2022-11-19T18:03:03.046Z,7.46
2022-11-19T18:05:31.692Z,7.53
2022-11-19T18:07:57.973Z,7.49
2022-11-19T18:10:24.409Z,7.25
2022-11-19T18:12:50.684Z,7.38
2022-11-19T18:15:17.825Z,7.26
2022-11-19T18:17:44.226Z,7.18
2022-11-19T18:20:10.589Z,7.34
2022-11-19T18:22:36.852Z,7.54
2022-11-19T18:25:07.014Z,7.48
2022-11-19T18:27:33.292Z,7.52
2022-11-19T18:30:00.373Z,7.60
2022-11-19T18:32:26.660Z,7.55
2022-11-19T18:34:53.954Z,7.57
2022-11-19T18:37:22.299Z,7.56
2022-11-19T18:39:48.659Z,7.65
2022-11-19T18:42:15.007Z,7.70
2022-11-19T18:44:43.261Z,7.62
2022-11-19T18:47:10.511Z,7.75
2022-11-19T18:49:37.091Z,7.78
2022-11-19T18:52:04.160Z,7.69
2022-11-19T18:54:30.628Z,7.78
2022-11-19T18:56:56.903Z,8.02
2022-11-19T18:59:23.728Z,7.98
2022-11-19T19:01:52.089Z,8.00
2022-11-19T19:04:18.462Z,7.96
2022-11-19T19:06:44.751Z,7.92
2022-11-19T19:09:11.248Z,7.97
2022-11-19T19:11:56.101Z,7.89
2022-11-19T19:14:22.394Z,7.91
2022-11-19T19:16:48.732Z,8.02
2022-11-19T19:19:17.100Z,8.00
2022-11-19T19:21:43.468Z,7.90
2022-11-19T19:24:09.798Z,7.65
2022-11-19T19:26:36.066Z,7.79
2022-11-19T19:29:02.348Z,7.80
2022-11-19T19:31:28.644Z,7.75
2022-11-19T19:33:54.940Z,7.77
2022-11-19T19:36:21.809Z,7.75
2022-11-19T19:38:48.094Z,7.94
2022-11-19T19:41:21.272Z,7.64
2022-11-19T19:43:47.956Z,7.56
2022-11-19T19:46:15.874Z,7.72
2022-11-19T19:48:42.604Z,7.70
2022-11-19T19:51:08.915Z,7.68
2022-11-19T19:53:37.667Z,7.94
2022-11-19T19:56:07.594Z,7.85
2022-11-19T19:58:34.079Z,7.65
2022-11-19T20:01:10.092Z,7.86
2022-11-19T20:03:36.466Z,7.71
2022-11-19T20:06:03.372Z,7.86
2022-11-19T20:08:29.712Z,7.95
2022-11-19T20:10:56.055Z,8.00
2022-11-19T20:13:28.443Z,8.01
2022-11-19T20:15:55.410Z,7.84
2022-11-19T20:18:21.748Z,7.76
2022-11-19T20:20:48.090Z,7.79
2022-11-19T20:23:14.442Z,7.36
2022-11-19T20:25:40.696Z,7.06
2022-11-19T20:28:06.971Z,7.23
2022-11-19T20:30:33.266Z,7.35
2022-11-19T20:32:59.529Z,7.62
2022-11-19T20:35:25.817Z,7.77
2022-11-19T20:37:52.089Z,7.76
2022-11-19T20:40:18.354Z,7.88
2022-11-19T20:43:03.346Z,7.77
2022-11-19T20:45:29.616Z,7.94
2022-11-19T20:47:55.928Z,8.00
2022-11-19T20:50:22.213Z,8.04
2022-11-19T20:52:48.494Z,7.98
2022-11-19T20:55:14.767Z,7.94
2022-11-19T20:57:41.030Z,7.71
2022-11-19T21:00:07.577Z,7.68
2022-11-19T21:02:33.860Z,7.71
2022-11-19T21:05:00.221Z,7.58
2022-11-19T21:07:26.553Z,7.53
2022-11-19T21:09:52.916Z,7.72
2022-11-19T21:12:19.208Z,7.70
2022-11-19T21:14:46.309Z,7.67
2022-11-19T21:17:12.595Z,7.78
2022-11-19T21:19:39.618Z,7.77
2022-11-19T21:22:05.889Z,7.88
2022-11-19T21:24:32.193Z,8.01
2022-11-19T21:26:58.556Z,7.98
2022-11-19T21:29:24.853Z,7.94
2022-11-19T21:31:51.185Z,7.61
2022-11-19T21:34:18.109Z,7.80
2022-11-19T21:36:44.601Z,7.86
2022-11-19T21:39:11.049Z,7.96
2022-11-19T21:41:37.331Z,8.05
2022-11-19T21:44:03.908Z,8.11
2022-11-19T21:46:30.206Z,8.13
2022-11-19T21:48:56.487Z,8.11
2022-11-19T21:51:24.877Z,8.01
2022-11-19T21:53:55.125Z,8.12
2022-11-19T21:56:21.406Z,8.02
2022-11-19T21:58:47.684Z,8.11
2022-11-19T22:01:14.009Z,8.03
2022-11-19T22:03:40.279Z,7.95
2022-11-19T22:06:07.333Z,7.81
2022-11-19T22:08:34.161Z,7.78
2022-11-19T22:11:00.876Z,7.78
2022-11-19T22:13:27.196Z,7.98
2022-11-19T22:16:00.519Z,8.13
2022-11-19T22:18:26.849Z,8.13
2022-11-19T22:21:02.244Z,8.04
2022-11-19T22:23:28.563Z,8.08
2022-11-19T22:25:54.832Z,7.90
2022-11-19T22:28:21.122Z,7.95
2022-11-19T22:30:53.700Z,7.86
2022-11-19T22:33:20.011Z,7.99
2022-11-19T22:35:46.484Z,8.05
2022-11-19T22:38:12.843Z,8.20
2022-11-19T22:40:39.108Z,8.03
2022-11-19T22:43:05.385Z,8.10
2022-11-19T22:45:31.704Z,8.02
2022-11-19T22:47:57.975Z,7.88
2022-11-19T22:50:24.263Z,8.00
2022-11-19T22:52:50.540Z,7.99
2022-11-19T22:55:16.808Z,7.86
2022-11-19T22:57:43.079Z,7.73
2022-11-19T23:00:09.844Z,7.98
2022-11-19T23:02:36.117Z,8.02
2022-11-19T23:05:02.403Z,8.03
2022-11-19T23:07:28.728Z,7.86
2022-11-19T23:09:55.115Z,7.91
2022-11-19T23:12:39.784Z,7.67
2022-11-19T23:15:07.027Z,7.75
2022-11-19T23:17:33.334Z,7.61
2022-11-19T23:20:04.562Z,7.68
2022-11-19T23:22:31.324Z,7.76
2022-11-19T23:24:57.605Z,7.63
2022-11-19T23:27:23.872Z,7.70
2022-11-19T23:29:50.138Z,7.65
2022-11-19T23:32:16.400Z,7.58
2022-11-19T23:34:42.657Z,7.43
2022-11-19T23:37:08.923Z,7.33
2022-11-19T23:39:35.605Z,7.16
2022-11-19T23:42:01.892Z,6.97
2022-11-19T23:44:28.161Z,7.03
2022-11-19T23:46:54.439Z,7.05
2022-11-19T23:49:21.058Z,6.86
2022-11-19T23:51:47.461Z,6.94
2022-11-19T23:54:14.137Z,6.72
2022-11-19T23:56:40.487Z,6.63
2022-11-19T23:59:07.291Z,6.42
